createdAt,value
2023-01-17T00:00:25.005Z,-0.41
2023-01-17T00:02:58.169Z,-0.33
2023-01-17T00:05:47.883Z,-0.38
2023-01-17T00:08:37.769Z,-0.40
2023-01-17T00:11:10.086Z,-0.39
2023-01-17T00:13:42.816Z,-0.37
2023-01-17T00:16:15.748Z,-0.39
2023-01-17T00:18:49.396Z,-0.39
2023-01-17T00:21:39.143Z,-0.41
2023-01-17T00:24:28.779Z,-0.38
2023-01-17T00:27:12.074Z,-0.40
2023-01-17T00:29:43.534Z,-0.35
2023-01-17T00:32:15.013Z,-0.37
2023-01-17T00:34:46.636Z,-0.41
2023-01-17T00:37:17.764Z,-0.43
2023-01-17T00:39:49.418Z,-0.43
2023-01-17T00:42:20.585Z,-0.41
2023-01-17T00:45:10.186Z,-0.38
2023-01-17T00:48:01.577Z,-0.39
2023-01-17T00:50:51.860Z,-0.37
2023-01-17T00:53:41.725Z,-0.41
2023-01-17T00:56:31.603Z,-0.40
2023-01-17T00:59:21.979Z,-0.41
2023-01-17T01:02:11.610Z,-0.40
2023-01-17T01:05:01.889Z,-0.42
2023-01-17T01:07:51.519Z,-0.40
2023-01-17T01:10:40.932Z,-0.38
2023-01-17T01:13:30.978Z,-0.39
2023-01-17T01:16:23.930Z,-0.39
2023-01-17T01:19:13.917Z,-0.38
2023-01-17T01:22:04.283Z,-0.36
2023-01-17T01:24:54.550Z,-0.34
2023-01-17T01:27:44.631Z,-0.33
2023-01-17T01:30:34.231Z,-0.34
2023-01-17T01:33:20.054Z,-0.34
2023-01-17T01:35:54.641Z,-0.31
2023-01-17T01:38:26.145Z,-0.28
2023-01-17T01:40:58.346Z,-0.15
2023-01-17T01:43:51.211Z,-0.27
2023-01-17T01:46:34.772Z,-0.30
2023-01-17T01:49:21.745Z,-0.26
2023-01-17T01:52:03.119Z,-0.23
2023-01-17T01:54:44.751Z,-0.24
2023-01-17T01:57:19.971Z,-0.22
2023-01-17T01:59:55.149Z,-0.22
2023-01-17T02:02:29.405Z,-0.23
2023-01-17T02:05:02.508Z,-0.23
2023-01-17T02:07:37.728Z,-0.09
2023-01-17T02:10:10.464Z,-0.20
2023-01-17T02:12:42.977Z,-0.21
2023-01-17T02:15:15.044Z,-0.21
2023-01-17T02:18:13.849Z,-0.22
2023-01-17T02:21:08.419Z,-0.20
2023-01-17T02:23:58.169Z,-0.18
2023-01-17T02:26:45.453Z,-0.19
2023-01-17T02:29:37.051Z,-0.18
2023-01-17T02:32:30.157Z,-0.14
2023-01-17T02:35:29.441Z,-0.14
2023-01-17T02:38:13.823Z,-0.16
2023-01-17T02:41:01.363Z,-0.14
2023-01-17T02:43:36.165Z,-0.15
2023-01-17T02:46:09.906Z,-0.16
2023-01-17T02:48:43.012Z,-0.14
2023-01-17T02:51:39.390Z,-0.12
2023-01-17T02:54:23.769Z,-0.12
2023-01-17T02:57:04.446Z,-0.09
2023-01-17T02:59:48.188Z,-0.08
2023-01-17T03:02:23.156Z,-0.06
2023-01-17T03:05:13.253Z,-0.03
2023-01-17T03:07:46.802Z,-0.04
2023-01-17T03:10:21.198Z,0.03
2023-01-17T03:12:54.017Z,0.05
2023-01-17T03:15:26.195Z,0.23
2023-01-17T03:18:01.179Z,0.13
2023-01-17T03:20:33.508Z,0.16
2023-01-17T03:23:05.669Z,0.19
2023-01-17T03:25:37.792Z,0.24
2023-01-17T03:28:09.934Z,0.25
2023-01-17T03:30:42.262Z,0.25
2023-01-17T03:33:14.487Z,0.29
2023-01-17T03:35:48.146Z,0.32
2023-01-17T03:38:20.279Z,0.35
2023-01-17T03:40:53.050Z,0.38
2023-01-17T03:43:25.285Z,0.36
2023-01-17T03:46:09.202Z,0.35
2023-01-17T03:48:43.105Z,0.36
2023-01-17T03:51:16.125Z,0.37
2023-01-17T03:53:48.949Z,0.34
2023-01-17T03:56:21.713Z,0.36
2023-01-17T03:58:53.841Z,0.32
2023-01-17T04:01:26.448Z,0.33
2023-01-17T04:03:59.177Z,0.34
2023-01-17T04:06:31.285Z,0.35
2023-01-17T04:09:03.565Z,0.36
2023-01-17T04:11:36.300Z,0.32
2023-01-17T04:14:08.825Z,0.28
2023-01-17T04:16:42.012Z,0.30
2023-01-17T04:19:15.010Z,0.27
2023-01-17T04:21:47.289Z,0.23
2023-01-17T04:24:20.644Z,0.17
2023-01-17T04:26:53.080Z,0.17
2023-01-17T04:29:25.687Z,0.15
2023-01-17T04:31:57.971Z,0.13
2023-01-17T04:34:30.744Z,0.12
2023-01-17T04:37:03.928Z,0.13
2023-01-17T04:39:38.247Z,0.15
2023-01-17T04:42:11.055Z,0.16
2023-01-17T04:44:43.641Z,0.17
2023-01-17T04:47:16.111Z,0.16
2023-01-17T04:49:49.667Z,0.15
2023-01-17T04:52:22.852Z,0.16
2023-01-17T04:54:55.569Z,0.16
2023-01-17T04:57:28.086Z,0.19
2023-01-17T05:00:00.370Z,0.17
2023-01-17T05:02:34.675Z,0.16
2023-01-17T05:05:11.802Z,0.15
2023-01-17T05:07:44.016Z,0.18
2023-01-17T05:10:17.039Z,0.21
2023-01-17T05:12:57.060Z,0.22
2023-01-17T05:15:29.609Z,0.26
2023-01-17T05:18:01.861Z,0.27
2023-01-17T05:20:34.412Z,0.28
2023-01-17T05:23:07.306Z,0.24
2023-01-17T05:25:42.199Z,0.26
2023-01-17T05:28:15.211Z,0.29
2023-01-17T05:30:48.248Z,0.29
2023-01-17T05:33:21.079Z,0.31
2023-01-17T05:35:53.818Z,0.33
2023-01-17T05:38:26.220Z,0.35
2023-01-17T05:41:05.124Z,0.34
2023-01-17T05:43:38.026Z,0.34
2023-01-17T05:46:10.591Z,0.36
2023-01-17T05:48:42.860Z,0.38
2023-01-17T05:51:14.963Z,0.38
2023-01-17T05:53:49.642Z,0.37
2023-01-17T05:56:22.262Z,0.38
2023-01-17T05:58:54.683Z,0.38
2023-01-17T06:01:27.092Z,0.39
2023-01-17T06:03:59.312Z,0.43
2023-01-17T06:06:31.511Z,0.43
2023-01-17T06:09:03.678Z,0.46
2023-01-17T06:11:35.954Z,0.47
2023-01-17T06:14:09.205Z,0.47
2023-01-17T06:16:41.750Z,0.46
2023-01-17T06:19:14.557Z,0.58
2023-01-17T06:21:47.397Z,0.52
2023-01-17T06:24:20.033Z,0.53
2023-01-17T06:26:52.900Z,0.61
2023-01-17T06:29:25.322Z,0.56
2023-01-17T06:32:01.515Z,0.56
2023-01-17T06:34:32.402Z,0.58
2023-01-17T06:37:04.437Z,0.75
2023-01-17T06:39:36.912Z,0.64
2023-01-17T06:42:10.409Z,0.67
2023-01-17T06:44:42.979Z,0.63
2023-01-17T06:47:15.173Z,0.63
2023-01-17T06:49:48.301Z,0.64
2023-01-17T06:52:20.624Z,0.67
2023-01-17T06:54:53.341Z,0.67
2023-01-17T06:57:25.783Z,0.69
2023-01-17T06:59:57.915Z,0.72
2023-01-17T07:02:29.943Z,0.74
2023-01-17T07:05:02.702Z,0.82
2023-01-17T07:07:36.168Z,0.84
2023-01-17T07:10:09.098Z,0.83
2023-01-17T07:12:43.455Z,0.85
2023-01-17T07:15:16.067Z,0.88
2023-01-17T07:17:48.210Z,0.89
2023-01-17T07:20:20.712Z,0.90
2023-01-17T07:22:53.435Z,1.00
2023-01-17T07:25:27.722Z,0.96
2023-01-17T07:28:00.450Z,0.98
2023-01-17T07:30:32.686Z,1.00
2023-01-17T07:33:05.787Z,1.04
2023-01-17T07:35:38.825Z,1.12
2023-01-17T07:38:14.225Z,1.08
2023-01-17T07:40:47.316Z,1.07
2023-01-17T07:43:19.793Z,1.09
2023-01-17T07:45:53.672Z,1.10
2023-01-17T07:48:26.830Z,1.13
2023-01-17T07:51:00.320Z,1.16
2023-01-17T07:53:33.980Z,1.16
2023-01-17T07:56:08.778Z,1.17
2023-01-17T07:58:41.202Z,1.18
2023-01-17T08:01:16.012Z,1.16
2023-01-17T08:03:49.854Z,1.19
2023-01-17T08:06:23.776Z,1.19
2023-01-17T08:08:57.779Z,1.32
2023-01-17T08:11:30.668Z,1.25
2023-01-17T08:14:04.022Z,1.31
2023-01-17T08:16:38.350Z,1.28
2023-01-17T08:19:10.930Z,1.32
2023-01-17T08:21:43.117Z,1.44
2023-01-17T08:24:16.002Z,1.34
2023-01-17T08:26:48.467Z,1.36
2023-01-17T08:29:21.588Z,1.36
2023-01-17T08:31:55.544Z,1.37
2023-01-17T08:34:28.977Z,1.38
2023-01-17T08:37:01.550Z,1.38
2023-01-17T08:39:34.312Z,1.39
2023-01-17T08:42:07.879Z,1.39
2023-01-17T08:44:40.257Z,1.43
2023-01-17T08:47:12.505Z,1.44
2023-01-17T08:49:45.497Z,1.43
2023-01-17T08:52:17.914Z,1.46
2023-01-17T08:54:50.154Z,1.49
2023-01-17T08:57:27.612Z,1.50
2023-01-17T09:00:01.296Z,1.50
2023-01-17T09:02:36.087Z,1.53
2023-01-17T09:05:09.961Z,1.51
2023-01-17T09:07:42.663Z,1.55
2023-01-17T09:10:15.955Z,1.59
2023-01-17T09:12:48.122Z,1.61
2023-01-17T09:15:20.696Z,1.61
2023-01-17T09:17:54.318Z,1.64
2023-01-17T09:20:28.779Z,1.68
2023-01-17T09:23:01.564Z,1.71
2023-01-17T09:25:33.507Z,1.90
2023-01-17T09:28:06.326Z,1.79
2023-01-17T09:30:39.964Z,1.80
2023-01-17T09:33:11.976Z,1.85
2023-01-17T09:35:44.104Z,1.87
2023-01-17T09:38:17.502Z,1.88
2023-01-17T09:40:50.338Z,1.90
2023-01-17T09:43:41.041Z,1.92
2023-01-17T09:46:18.777Z,1.99
2023-01-17T09:49:00.336Z,2.02
2023-01-17T09:51:33.099Z,2.10
2023-01-17T09:54:05.594Z,2.12
2023-01-17T09:56:40.565Z,2.18
2023-01-17T09:59:21.827Z,2.24
2023-01-17T10:02:06.253Z,2.28
2023-01-17T10:04:44.880Z,2.32
2023-01-17T10:07:36.715Z,2.33
2023-01-17T10:10:30.345Z,2.36
2023-01-17T10:13:05.516Z,2.37
2023-01-17T10:15:43.574Z,2.34
2023-01-17T10:18:33.921Z,2.36
2023-01-17T10:21:31.181Z,2.34
2023-01-17T10:24:24.922Z,2.33
2023-01-17T10:26:58.785Z,2.33
2023-01-17T10:29:33.928Z,2.30
2023-01-17T10:32:07.551Z,2.29
2023-01-17T10:34:42.532Z,2.28
2023-01-17T10:37:41.658Z,2.28
2023-01-17T10:40:17.079Z,2.31
2023-01-17T10:42:55.227Z,2.29
2023-01-17T10:45:29.331Z,2.30
2023-01-17T10:48:16.207Z,2.30
2023-01-17T10:50:53.996Z,2.31
2023-01-17T10:53:41.280Z,2.32
2023-01-17T10:56:16.703Z,2.33
2023-01-17T10:58:50.480Z,2.35
2023-01-17T11:01:31.938Z,2.41
2023-01-17T11:04:05.316Z,2.40
2023-01-17T11:06:57.106Z,2.40
2023-01-17T11:09:13.463Z,2.40
2023-01-17T11:11:51.511Z,2.42
2023-01-17T11:14:27.060Z,2.51
2023-01-17T11:17:04.310Z,2.42
2023-01-17T11:19:39.023Z,2.39
2023-01-17T11:22:31.022Z,2.39
2023-01-17T11:25:04.015Z,2.39
2023-01-17T11:27:39.824Z,2.45
2023-01-17T11:30:23.212Z,2.47
2023-01-17T11:33:00.129Z,2.45
2023-01-17T11:35:38.704Z,2.64
2023-01-17T11:38:23.357Z,2.55
2023-01-17T11:40:57.083Z,2.54
2023-01-17T11:43:29.805Z,2.57
2023-01-17T11:46:19.686Z,2.62
2023-01-17T11:48:57.421Z,2.62
2023-01-17T11:51:35.218Z,2.66
2023-01-17T11:54:23.359Z,2.67
2023-01-17T11:57:06.191Z,2.68
2023-01-17T11:59:45.617Z,2.70
2023-01-17T12:02:35.977Z,2.70
2023-01-17T12:05:28.925Z,2.76
2023-01-17T12:08:15.906Z,2.77
2023-01-17T12:10:51.199Z,2.84
2023-01-17T12:14:02.657Z,2.83
2023-01-17T12:17:05.239Z,2.86
2023-01-17T12:19:41.437Z,2.86
2023-01-17T12:22:48.591Z,2.90
2023-01-17T12:25:29.485Z,2.90
2023-01-17T12:28:11.516Z,2.95
2023-01-17T12:30:49.567Z,2.95
2023-01-17T12:33:30.679Z,2.96
2023-01-17T12:36:13.177Z,2.97
2023-01-17T12:38:48.115Z,2.99
2023-01-17T12:41:31.751Z,2.98
2023-01-17T12:44:04.234Z,3.00
2023-01-17T12:46:44.187Z,3.03
2023-01-17T12:49:43.387Z,3.04
2023-01-17T12:52:33.041Z,3.09
2023-01-17T12:55:08.191Z,3.11
2023-01-17T12:57:46.106Z,3.10
2023-01-17T13:00:24.004Z,3.11
2023-01-17T13:03:10.839Z,3.13
2023-01-17T13:05:46.260Z,3.14
2023-01-17T13:08:26.929Z,3.14
2023-01-17T13:11:07.732Z,3.13
2023-01-17T13:13:41.455Z,3.15
2023-01-17T13:16:19.118Z,3.24
2023-01-17T13:18:52.990Z,3.21
2023-01-17T13:21:30.761Z,3.23
2023-01-17T13:24:08.935Z,3.21
2023-01-17T13:26:58.863Z,3.22
2023-01-17T13:29:53.033Z,3.26
2023-01-17T13:32:33.311Z,3.30
2023-01-17T13:35:14.692Z,3.33
2023-01-17T13:38:16.728Z,3.33
2023-01-17T13:41:10.035Z,3.34
2023-01-17T13:43:47.820Z,3.42
2023-01-17T13:46:21.155Z,3.41
2023-01-17T13:48:56.242Z,3.49
2023-01-17T13:51:31.223Z,3.42
2023-01-17T13:54:05.379Z,3.41
2023-01-17T13:56:37.922Z,3.42
2023-01-17T13:59:13.151Z,3.47
2023-01-17T14:01:48.207Z,3.50
2023-01-17T14:04:20.915Z,3.49
2023-01-17T14:06:56.859Z,3.49
2023-01-17T14:09:33.642Z,3.49
2023-01-17T14:12:11.587Z,3.49
2023-01-17T14:14:46.708Z,3.53
2023-01-17T14:17:28.324Z,3.54
2023-01-17T14:20:08.889Z,3.61
2023-01-17T14:22:44.887Z,3.62
2023-01-17T14:25:22.857Z,3.59
2023-01-17T14:27:58.061Z,3.58
2023-01-17T14:30:36.696Z,3.56
2023-01-17T14:33:24.231Z,3.59
2023-01-17T14:36:02.376Z,3.56
2023-01-17T14:38:36.176Z,3.52
2023-01-17T14:41:14.431Z,3.53
2023-01-17T14:43:49.256Z,3.52
2023-01-17T14:46:24.121Z,3.52
2023-01-17T14:49:26.576Z,3.50
2023-01-17T14:52:03.992Z,3.47
2023-01-17T14:54:36.917Z,3.47
2023-01-17T14:57:28.893Z,3.52
2023-01-17T15:00:14.003Z,3.48
2023-01-17T15:02:47.704Z,3.46
2023-01-17T15:05:22.437Z,3.44
2023-01-17T15:07:57.765Z,3.45
2023-01-17T15:10:33.184Z,3.41
2023-01-17T15:13:10.658Z,3.41
2023-01-17T15:15:44.717Z,3.44
2023-01-17T15:18:19.659Z,3.43
2023-01-17T15:21:03.706Z,3.47
2023-01-17T15:23:41.541Z,3.48
2023-01-17T15:26:16.984Z,3.45
2023-01-17T15:28:50.222Z,3.46
2023-01-17T15:31:28.055Z,3.46
2023-01-17T15:34:00.178Z,3.45
2023-01-17T15:36:34.486Z,3.46
2023-01-17T15:39:18.150Z,3.45
2023-01-17T15:41:53.659Z,3.51
2023-01-17T15:44:46.846Z,3.49
2023-01-17T15:47:07.965Z,3.54
2023-01-17T15:49:42.130Z,3.53
2023-01-17T15:52:17.117Z,3.50
2023-01-17T15:54:54.862Z,3.51
2023-01-17T15:57:39.025Z,3.52
2023-01-17T16:00:18.798Z,3.51
2023-01-17T16:03:00.711Z,3.51
2023-01-17T16:05:37.069Z,3.53
2023-01-17T16:08:12.287Z,3.55
2023-01-17T16:10:45.719Z,3.55
2023-01-17T16:13:18.124Z,3.57
2023-01-17T16:15:50.993Z,3.57
2023-01-17T16:18:26.297Z,3.55
2023-01-17T16:21:04.948Z,3.59
2023-01-17T16:23:37.177Z,3.55
2023-01-17T16:26:11.118Z,3.55
2023-01-17T16:28:43.860Z,3.58
2023-01-17T16:31:17.487Z,3.60
2023-01-17T16:33:51.435Z,3.64
2023-01-17T16:36:23.691Z,3.55
2023-01-17T16:38:55.953Z,3.56
2023-01-17T16:41:28.015Z,3.51
2023-01-17T16:44:06.106Z,3.50
2023-01-17T16:46:38.853Z,3.47
2023-01-17T16:49:10.875Z,3.47
2023-01-17T16:51:44.560Z,3.47
2023-01-17T16:54:16.877Z,3.47
2023-01-17T16:56:49.394Z,3.44
2023-01-17T16:59:21.744Z,3.47
2023-01-17T17:01:53.920Z,3.44
2023-01-17T17:04:26.050Z,3.46
2023-01-17T17:06:58.162Z,3.45
2023-01-17T17:09:30.440Z,3.39
2023-01-17T17:12:02.511Z,3.34
2023-01-17T17:14:34.747Z,3.37
2023-01-17T17:17:07.182Z,3.32
2023-01-17T17:19:40.279Z,3.26
2023-01-17T17:22:12.234Z,3.23
2023-01-17T17:24:44.229Z,3.28
2023-01-17T17:27:16.245Z,3.23
2023-01-17T17:29:48.772Z,3.23
2023-01-17T17:32:21.376Z,3.21
2023-01-17T17:34:53.523Z,3.18
2023-01-17T17:37:27.215Z,3.19
2023-01-17T17:39:59.665Z,3.19
2023-01-17T17:42:33.497Z,3.14
2023-01-17T17:45:05.978Z,3.15
2023-01-17T17:47:38.162Z,3.12
2023-01-17T17:50:13.072Z,3.13
2023-01-17T17:52:45.658Z,3.14
2023-01-17T17:55:19.197Z,3.13
2023-01-17T17:57:51.588Z,3.13
2023-01-17T18:00:24.115Z,3.08
2023-01-17T18:02:56.146Z,3.07
2023-01-17T18:05:28.152Z,3.10
2023-01-17T18:08:00.876Z,3.07
2023-01-17T18:10:32.862Z,3.06
2023-01-17T18:13:04.734Z,3.04
2023-01-17T18:15:36.719Z,3.08
2023-01-17T18:18:09.145Z,3.11
2023-01-17T18:20:41.329Z,3.10
2023-01-17T18:23:13.476Z,3.06
2023-01-17T18:25:45.655Z,3.05
2023-01-17T18:28:18.307Z,3.08
2023-01-17T18:30:50.601Z,3.09
2023-01-17T18:33:22.863Z,3.12
2023-01-17T18:35:59.355Z,3.13
2023-01-17T18:38:32.204Z,3.20
2023-01-17T18:41:21.044Z,3.23
2023-01-17T18:43:53.742Z,3.20
2023-01-17T18:46:27.488Z,3.23
2023-01-17T18:49:00.166Z,3.19
2023-01-17T18:51:34.640Z,3.21
2023-01-17T18:54:09.933Z,3.17
2023-01-17T18:56:42.639Z,3.19
2023-01-17T18:59:17.521Z,3.15
2023-01-17T19:01:50.633Z,3.15
2023-01-17T19:04:22.726Z,3.14
2023-01-17T19:06:55.830Z,3.11
2023-01-17T19:09:27.991Z,3.10
2023-01-17T19:12:00.232Z,3.12
2023-01-17T19:14:32.863Z,3.08
2023-01-17T19:17:05.411Z,3.10
2023-01-17T19:19:38.339Z,3.10
2023-01-17T19:22:10.373Z,3.08
2023-01-17T19:24:42.634Z,3.10
2023-01-17T19:27:14.824Z,3.04
2023-01-17T19:29:46.879Z,2.98
2023-01-17T19:32:19.145Z,2.95
2023-01-17T19:34:51.481Z,2.90
2023-01-17T19:37:23.549Z,2.86
2023-01-17T19:39:55.762Z,2.84
2023-01-17T19:42:28.785Z,2.80
2023-01-17T19:45:00.920Z,2.79
2023-01-17T19:47:34.085Z,2.80
2023-01-17T19:50:08.596Z,2.81
2023-01-17T19:52:42.292Z,2.82
2023-01-17T19:55:14.574Z,2.80
2023-01-17T19:57:46.856Z,2.81
2023-01-17T20:00:22.899Z,2.86
2023-01-17T20:02:55.081Z,2.80
2023-01-17T20:05:27.016Z,2.75
2023-01-17T20:07:59.310Z,2.77
2023-01-17T20:10:31.815Z,2.73
2023-01-17T20:13:04.846Z,2.73
2023-01-17T20:15:37.113Z,2.76
2023-01-17T20:18:09.391Z,2.78
2023-01-17T20:20:56.383Z,2.77
2023-01-17T20:23:16.203Z,2.77
2023-01-17T20:26:03.591Z,2.79
2023-01-17T20:28:37.999Z,2.77
2023-01-17T20:31:15.671Z,2.78
2023-01-17T20:33:50.530Z,2.79
2023-01-17T20:36:25.317Z,2.80
2023-01-17T20:38:58.124Z,2.77
2023-01-17T20:41:35.645Z,2.74
2023-01-17T20:44:10.305Z,2.68
2023-01-17T20:46:42.990Z,2.81
2023-01-17T20:49:18.937Z,2.67
2023-01-17T20:51:51.618Z,2.63
2023-01-17T20:54:24.102Z,2.64
2023-01-17T20:56:56.021Z,2.61
2023-01-17T20:59:28.151Z,2.58
2023-01-17T21:02:02.737Z,2.56
2023-01-17T21:04:35.051Z,2.52
2023-01-17T21:07:07.088Z,2.52
2023-01-17T21:09:39.294Z,2.57
2023-01-17T21:12:12.062Z,2.51
2023-01-17T21:14:45.378Z,2.50
2023-01-17T21:17:17.803Z,2.48
2023-01-17T21:19:49.809Z,2.50
2023-01-17T21:22:22.081Z,2.42
2023-01-17T21:24:54.468Z,2.41
2023-01-17T21:27:27.284Z,2.41
2023-01-17T21:29:59.713Z,2.40
2023-01-17T21:32:33.467Z,2.36
2023-01-17T21:35:07.964Z,2.30
2023-01-17T21:37:41.220Z,2.25
2023-01-17T21:40:14.605Z,2.40
2023-01-17T21:42:47.071Z,2.10
2023-01-17T21:45:20.553Z,2.00
2023-01-17T21:47:52.701Z,1.97
2023-01-17T21:50:33.087Z,1.93
2023-01-17T21:52:58.619Z,1.86
2023-01-17T21:55:48.817Z,1.84
2023-01-17T21:58:38.827Z,1.82
2023-01-17T22:01:18.046Z,1.79
2023-01-17T22:04:01.746Z,1.79
2023-01-17T22:06:35.478Z,1.78
2023-01-17T22:09:07.750Z,1.77
2023-01-17T22:11:39.921Z,1.74
2023-01-17T22:14:11.978Z,1.72
2023-01-17T22:16:44.074Z,1.70
2023-01-17T22:19:16.622Z,1.72
2023-01-17T22:21:49.401Z,1.79
2023-01-17T22:24:22.328Z,1.69
2023-01-17T22:26:54.891Z,1.67
2023-01-17T22:29:27.202Z,1.66
2023-01-17T22:31:59.611Z,1.62
2023-01-17T22:34:31.670Z,1.60
2023-01-17T22:37:06.085Z,1.61
2023-01-17T22:39:39.560Z,1.61
2023-01-17T22:42:13.438Z,1.74
2023-01-17T22:44:46.087Z,1.71
2023-01-17T22:47:18.810Z,1.70
2023-01-17T22:49:51.297Z,1.70
2023-01-17T22:52:24.105Z,1.73
2023-01-17T22:54:56.536Z,1.75
2023-01-17T22:57:28.782Z,1.73
2023-01-17T23:00:01.560Z,1.90
2023-01-17T23:02:34.127Z,1.78
2023-01-17T23:05:07.510Z,1.78
2023-01-17T23:07:41.476Z,1.75
2023-01-17T23:10:16.680Z,1.78
2023-01-17T23:12:49.587Z,1.77
2023-01-17T23:15:39.432Z,1.82
2023-01-17T23:18:29.351Z,1.77
2023-01-17T23:21:01.653Z,1.81
2023-01-17T23:23:34.085Z,1.84
2023-01-17T23:26:07.152Z,1.86
2023-01-17T23:28:39.285Z,1.83
2023-01-17T23:31:13.068Z,1.80
2023-01-17T23:33:48.936Z,1.84
2023-01-17T23:36:20.555Z,1.83
2023-01-17T23:38:52.787Z,1.81
2023-01-17T23:41:42.231Z,1.82
2023-01-17T23:44:15.541Z,1.86
2023-01-17T23:46:47.961Z,1.84
2023-01-17T23:49:20.365Z,1.90
2023-01-17T23:51:53.150Z,1.88
2023-01-17T23:54:25.603Z,1.87
2023-01-17T23:56:58.080Z,1.92
2023-01-17T23:59:30.488Z,1.90
